createdAt,value
2022-12-13T00:00:46.571Z,9.84
2022-12-13T00:01:27.534Z,9.55
2022-12-13T00:02:07.570Z,9.75
2022-12-13T00:02:51.838Z,10.49
2022-12-13T00:03:31.513Z,10.29
2022-12-13T00:04:20.528Z,10.13
2022-12-13T00:05:14.873Z,11.80
2022-12-13T00:06:09.532Z,12.74
2022-12-13T00:07:04.500Z,13.00
2022-12-13T00:07:58.539Z,11.77
2022-12-13T00:08:52.507Z,10.44
2022-12-13T00:09:39.507Z,9.45
2022-12-13T00:10:13.679Z,9.01
2022-12-13T00:11:13.483Z,10.09
2022-12-13T00:11:47.523Z,10.25
2022-12-13T00:12:34.493Z,10.82
2022-12-13T00:13:08.583Z,11.64
2022-12-13T00:13:56.492Z,11.86
2022-12-13T00:14:32.547Z,15.73
2022-12-13T00:15:13.859Z,27.25
2022-12-13T00:16:04.573Z,32.20
2022-12-13T00:16:44.528Z,32.40
2022-12-13T00:17:24.933Z,25.51
2022-12-13T00:18:04.471Z,14.71
2022-12-13T00:18:44.542Z,10.43
2022-12-13T00:19:25.479Z,9.96
2022-12-13T00:20:05.585Z,9.98
2022-12-13T00:20:47.522Z,9.56
2022-12-13T00:21:30.549Z,9.66
2022-12-13T00:22:10.480Z,9.96
2022-12-13T00:22:50.521Z,10.60
2022-12-13T00:23:31.464Z,11.01
2022-12-13T00:24:12.559Z,9.70
2022-12-13T00:24:52.468Z,9.68
2022-12-13T00:25:32.515Z,9.64
2022-12-13T00:26:16.497Z,9.82
2022-12-13T00:26:56.622Z,11.06
2022-12-13T00:27:36.467Z,10.86
2022-12-13T00:28:16.776Z,10.94
2022-12-13T00:28:57.474Z,11.26
2022-12-13T00:29:37.603Z,10.93
2022-12-13T00:30:18.456Z,10.91
2022-12-13T00:31:13.035Z,10.05
2022-12-13T00:32:01.041Z,9.98
2022-12-13T00:32:41.519Z,10.34
2022-12-13T00:33:21.475Z,9.66
2022-12-13T00:34:01.529Z,9.27
2022-12-13T00:34:41.476Z,10.41
2022-12-13T00:35:21.569Z,11.30
2022-12-13T00:36:02.461Z,10.69
2022-12-13T00:36:42.506Z,10.81
2022-12-13T00:37:23.470Z,10.82
2022-12-13T00:38:03.520Z,9.80
2022-12-13T00:38:44.464Z,9.57
2022-12-13T00:39:24.552Z,8.99
2022-12-13T00:40:04.459Z,9.36
2022-12-13T00:40:44.496Z,10.29
2022-12-13T00:41:26.470Z,10.54
2022-12-13T00:42:06.488Z,10.36
2022-12-13T00:42:46.471Z,10.81
2022-12-13T00:43:26.479Z,12.01
2022-12-13T00:44:07.448Z,14.70
2022-12-13T00:44:47.531Z,18.54
2022-12-13T00:45:27.453Z,15.55
2022-12-13T00:46:07.564Z,13.84
2022-12-13T00:46:48.442Z,11.18
2022-12-13T00:47:28.491Z,9.81
2022-12-13T00:48:08.472Z,9.73
2022-12-13T00:48:49.566Z,11.35
2022-12-13T00:49:30.439Z,9.98
2022-12-13T00:50:11.531Z,8.45
2022-12-13T00:50:51.446Z,9.59
2022-12-13T00:51:32.549Z,9.84
2022-12-13T00:52:12.472Z,9.13
2022-12-13T00:52:52.478Z,11.11
2022-12-13T00:53:32.468Z,12.70
2022-12-13T00:54:12.487Z,10.32
2022-12-13T00:54:53.449Z,9.74
2022-12-13T00:55:34.523Z,9.40
2022-12-13T00:56:21.430Z,9.66
2022-12-13T00:57:01.475Z,9.90
2022-12-13T00:57:41.443Z,11.01
2022-12-13T00:58:21.475Z,9.77
2022-12-13T00:59:03.467Z,9.90
2022-12-13T00:59:43.508Z,9.69
2022-12-13T01:00:24.452Z,10.06
2022-12-13T01:01:14.606Z,9.10
2022-12-13T01:01:54.491Z,9.15
2022-12-13T01:02:34.554Z,9.36
2022-12-13T01:03:27.467Z,9.59
2022-12-13T01:04:17.488Z,8.64
2022-12-13T01:05:11.640Z,8.74
2022-12-13T01:06:14.977Z,10.32
2022-12-13T01:07:09.432Z,10.86
2022-12-13T01:08:03.465Z,10.13
2022-12-13T01:08:58.454Z,10.07
2022-12-13T01:09:40.452Z,9.89
2022-12-13T01:10:20.468Z,10.19
2022-12-13T01:11:01.444Z,9.54
2022-12-13T01:11:41.482Z,9.61
2022-12-13T01:12:21.440Z,9.54
2022-12-13T01:13:01.553Z,9.73
2022-12-13T01:13:42.434Z,10.68
2022-12-13T01:14:23.466Z,9.66
2022-12-13T01:15:04.457Z,8.25
2022-12-13T01:15:52.462Z,7.45
2022-12-13T01:16:32.520Z,7.89
2022-12-13T01:17:13.542Z,8.19
2022-12-13T01:17:55.432Z,8.86
2022-12-13T01:18:35.515Z,8.02
2022-12-13T01:19:15.419Z,7.93
2022-12-13T01:19:55.509Z,9.81
2022-12-13T01:20:35.479Z,9.01
2022-12-13T01:21:22.528Z,7.60
2022-12-13T01:22:05.407Z,7.64
2022-12-13T01:22:46.448Z,7.96
2022-12-13T01:23:26.398Z,7.06
2022-12-13T01:24:13.497Z,7.63
2022-12-13T01:24:53.416Z,8.02
2022-12-13T01:25:33.512Z,7.55
2022-12-13T01:26:20.419Z,7.71
2022-12-13T01:27:00.474Z,7.82
2022-12-13T01:27:41.399Z,7.91
2022-12-13T01:28:21.453Z,12.30
2022-12-13T01:29:01.410Z,15.69
2022-12-13T01:29:41.510Z,16.75
2022-12-13T01:30:21.407Z,17.65
2022-12-13T01:31:03.552Z,15.00
2022-12-13T01:31:47.416Z,11.06
2022-12-13T01:32:27.448Z,8.70
2022-12-13T01:33:14.349Z,7.65
2022-12-13T01:33:55.432Z,7.30
2022-12-13T01:34:35.392Z,7.46
2022-12-13T01:35:15.855Z,6.79
2022-12-13T01:35:57.394Z,6.91
2022-12-13T01:36:38.047Z,8.54
2022-12-13T01:37:19.411Z,9.43
2022-12-13T01:38:15.428Z,10.19
2022-12-13T01:38:58.823Z,8.95
2022-12-13T01:39:39.444Z,8.32
2022-12-13T01:40:20.396Z,8.74
2022-12-13T01:41:16.667Z,9.05
2022-12-13T01:42:06.379Z,8.64
2022-12-13T01:42:46.411Z,8.96
2022-12-13T01:43:22.451Z,9.04
2022-12-13T01:44:13.401Z,8.18
2022-12-13T01:45:15.844Z,7.99
2022-12-13T01:46:03.420Z,7.59
2022-12-13T01:46:41.433Z,8.93
2022-12-13T01:47:34.405Z,10.29
2022-12-13T01:48:19.435Z,8.56
2022-12-13T01:49:20.841Z,7.68
2022-12-13T01:50:20.398Z,6.96
2022-12-13T01:51:17.389Z,7.20
2022-12-13T01:52:16.391Z,6.88
2022-12-13T01:53:10.387Z,6.18
2022-12-13T01:53:53.387Z,6.53
2022-12-13T01:54:52.375Z,6.53
2022-12-13T01:55:49.364Z,6.30
2022-12-13T01:57:00.659Z,6.74
2022-12-13T01:57:56.380Z,6.86
2022-12-13T01:58:51.384Z,6.38
2022-12-13T01:59:33.385Z,6.13
2022-12-13T02:00:15.537Z,6.51
2022-12-13T02:00:56.436Z,6.82
2022-12-13T02:01:36.442Z,6.35
2022-12-13T02:02:19.356Z,6.10
2022-12-13T02:03:00.448Z,6.80
2022-12-13T02:03:41.377Z,7.09
2022-12-13T02:04:44.680Z,7.21
2022-12-13T02:05:47.472Z,7.05
2022-12-13T02:06:50.364Z,6.80
2022-12-13T02:07:26.476Z,5.82
2022-12-13T02:08:15.386Z,5.74
2022-12-13T02:08:51.378Z,6.05
2022-12-13T02:09:38.377Z,6.45
2022-12-13T02:10:21.392Z,6.55
2022-12-13T02:11:16.375Z,6.50
2022-12-13T02:12:10.366Z,6.74
2022-12-13T02:13:05.357Z,6.16
2022-12-13T02:13:59.354Z,5.95
2022-12-13T02:14:54.348Z,5.95
2022-12-13T02:15:53.418Z,5.91
2022-12-13T02:16:58.404Z,6.65
2022-12-13T02:18:12.408Z,8.23
2022-12-13T02:19:20.386Z,8.82
2022-12-13T02:20:41.347Z,7.28
2022-12-13T02:21:36.387Z,7.20
2022-12-13T02:22:42.427Z,6.89
2022-12-13T02:23:55.349Z,6.94
2022-12-13T02:24:45.391Z,7.06
2022-12-13T02:25:57.397Z,6.94
2022-12-13T02:27:06.365Z,7.32
2022-12-13T02:28:43.358Z,6.68
2022-12-13T02:30:02.351Z,6.84
2022-12-13T02:31:00.371Z,6.13
2022-12-13T02:32:15.378Z,7.22
2022-12-13T02:33:44.321Z,7.35
2022-12-13T02:34:54.322Z,7.61
2022-12-13T02:36:08.352Z,8.73
2022-12-13T02:37:18.207Z,7.55
2022-12-13T02:38:52.312Z,6.66
2022-12-13T02:39:52.328Z,6.34
2022-12-13T02:41:18.316Z,5.74
2022-12-13T02:42:22.225Z,5.57
2022-12-13T02:43:25.320Z,6.06
2022-12-13T02:44:38.325Z,5.50
2022-12-13T02:45:39.347Z,5.60
2022-12-13T02:46:36.344Z,6.24
2022-12-13T02:47:40.331Z,6.28
2022-12-13T02:48:54.325Z,6.13
2022-12-13T02:49:53.345Z,6.04
2022-12-13T02:50:48.330Z,5.90
2022-12-13T02:51:43.323Z,6.00
2022-12-13T02:52:41.324Z,6.80
2022-12-13T02:53:36.310Z,7.29
2022-12-13T02:54:23.330Z,7.69
2022-12-13T02:55:04.315Z,7.18
2022-12-13T02:55:48.403Z,6.65
2022-12-13T02:56:28.314Z,6.71
2022-12-13T02:57:08.440Z,6.05
2022-12-13T02:57:51.311Z,6.36
2022-12-13T02:58:37.338Z,6.74
2022-12-13T02:59:19.300Z,6.57
2022-12-13T02:59:59.360Z,6.38
2022-12-13T03:01:28.750Z,6.51
2022-12-13T03:02:31.255Z,5.84
2022-12-13T03:04:03.328Z,5.51
2022-12-13T03:05:25.065Z,4.97
2022-12-13T03:06:38.285Z,4.89
2022-12-13T03:07:50.388Z,5.20
2022-12-13T03:08:45.299Z,6.14
2022-12-13T03:09:56.329Z,6.31
2022-12-13T03:10:40.330Z,6.59
2022-12-13T03:11:28.271Z,5.86
2022-12-13T03:12:43.979Z,6.14
2022-12-13T03:14:01.263Z,5.74
2022-12-13T03:14:35.327Z,4.91
2022-12-13T03:15:41.427Z,4.97
2022-12-13T03:16:50.371Z,5.45
2022-12-13T03:17:32.299Z,5.76
2022-12-13T03:18:34.322Z,5.30
2022-12-13T03:19:17.292Z,5.10
2022-12-13T03:20:00.358Z,5.47
2022-12-13T03:20:40.261Z,6.09
2022-12-13T03:21:20.295Z,5.78
2022-12-13T03:21:56.334Z,6.45
2022-12-13T03:22:43.284Z,6.09
2022-12-13T03:23:18.580Z,6.24
2022-12-13T03:24:05.272Z,5.78
2022-12-13T03:24:39.640Z,6.13
2022-12-13T03:25:30.834Z,6.60
2022-12-13T03:26:19.301Z,6.16
2022-12-13T03:27:13.278Z,6.21
2022-12-13T03:28:07.293Z,7.30
2022-12-13T03:29:01.293Z,7.66
2022-12-13T03:29:55.284Z,6.76
2022-12-13T03:30:49.264Z,6.22
2022-12-13T03:31:36.311Z,6.61
2022-12-13T03:32:10.312Z,6.63
2022-12-13T03:32:57.259Z,5.88
2022-12-13T03:33:31.283Z,6.55
2022-12-13T03:34:22.972Z,6.64
2022-12-13T03:35:00.773Z,5.68
2022-12-13T03:36:04.286Z,5.71
2022-12-13T03:36:45.280Z,6.28
2022-12-13T03:37:40.265Z,6.79
2022-12-13T03:38:34.257Z,6.97
2022-12-13T03:39:28.246Z,6.20
2022-12-13T03:40:23.243Z,5.56
2022-12-13T03:41:25.267Z,6.13
2022-12-13T03:42:06.272Z,6.60
2022-12-13T03:42:46.289Z,6.01
2022-12-13T03:43:26.239Z,5.66
2022-12-13T03:44:11.279Z,6.41
2022-12-13T03:44:51.255Z,5.91
2022-12-13T03:45:31.281Z,5.70
2022-12-13T03:46:12.348Z,6.22
2022-12-13T03:46:53.037Z,6.59
2022-12-13T03:47:33.269Z,6.31
2022-12-13T03:48:13.309Z,5.04
2022-12-13T03:49:03.238Z,5.09
2022-12-13T03:49:43.272Z,5.41
2022-12-13T03:50:26.566Z,6.45
2022-12-13T03:51:07.314Z,5.94
2022-12-13T03:51:48.234Z,6.07
2022-12-13T03:52:28.292Z,6.15
2022-12-13T03:53:10.269Z,5.72
2022-12-13T03:54:04.300Z,6.03
2022-12-13T03:54:45.220Z,6.24
2022-12-13T03:55:25.303Z,5.97
2022-12-13T03:56:06.300Z,5.99
2022-12-13T03:57:00.238Z,5.99
2022-12-13T03:57:54.236Z,6.10
2022-12-13T03:58:37.620Z,7.75
2022-12-13T03:59:18.275Z,7.74
2022-12-13T03:59:58.254Z,7.43
2022-12-13T04:00:38.323Z,7.76
2022-12-13T04:01:22.345Z,7.31
2022-12-13T04:02:02.537Z,7.09
2022-12-13T04:02:42.249Z,6.86
2022-12-13T04:03:36.282Z,7.76
2022-12-13T04:04:30.229Z,8.23
2022-12-13T04:05:24.227Z,8.38
2022-12-13T04:06:22.725Z,7.99
2022-12-13T04:07:22.538Z,8.06
2022-12-13T04:08:21.903Z,7.07
2022-12-13T04:09:02.269Z,7.28
2022-12-13T04:09:42.255Z,6.76
2022-12-13T04:10:25.493Z,6.56
2022-12-13T04:11:25.026Z,6.56
2022-12-13T04:12:24.207Z,6.99
2022-12-13T04:13:23.075Z,8.11
2022-12-13T04:14:03.243Z,8.77
2022-12-13T04:14:43.309Z,7.64
2022-12-13T04:15:23.216Z,7.40
2022-12-13T04:16:03.508Z,6.70
2022-12-13T04:16:43.220Z,7.65
2022-12-13T04:17:23.268Z,7.47
2022-12-13T04:18:03.200Z,6.64
2022-12-13T04:18:43.413Z,7.57
2022-12-13T04:19:24.166Z,7.60
2022-12-13T04:20:04.288Z,6.91
2022-12-13T04:20:44.255Z,6.71
2022-12-13T04:21:24.252Z,6.32
2022-12-13T04:22:05.201Z,6.03
2022-12-13T04:22:45.240Z,5.94
2022-12-13T04:23:25.197Z,5.78
2022-12-13T04:24:05.243Z,5.85
2022-12-13T04:24:45.246Z,6.39
2022-12-13T04:25:25.228Z,6.81
2022-12-13T04:26:06.210Z,7.01
2022-12-13T04:26:46.624Z,6.70
2022-12-13T04:27:26.220Z,6.91
2022-12-13T04:28:06.257Z,6.61
2022-12-13T04:28:50.989Z,6.69
2022-12-13T04:29:35.116Z,6.59
2022-12-13T04:30:16.243Z,6.51
2022-12-13T04:31:00.230Z,6.34
2022-12-13T04:31:41.252Z,6.03
2022-12-13T04:32:25.878Z,7.03
2022-12-13T04:33:08.200Z,6.66
2022-12-13T04:34:02.191Z,7.28
2022-12-13T04:35:01.257Z,8.41
2022-12-13T04:35:41.208Z,10.32
2022-12-13T04:36:31.441Z,10.71
2022-12-13T04:37:13.183Z,9.45
2022-12-13T04:37:53.231Z,9.59
2022-12-13T04:38:34.190Z,9.38
2022-12-13T04:39:22.323Z,8.63
2022-12-13T04:40:03.186Z,7.76
2022-12-13T04:40:50.207Z,7.86
2022-12-13T04:41:50.183Z,7.63
2022-12-13T04:42:44.195Z,6.54
2022-12-13T04:43:38.165Z,6.21
2022-12-13T04:44:36.756Z,5.14
2022-12-13T04:45:32.227Z,4.63
2022-12-13T04:46:12.251Z,4.89
2022-12-13T04:46:52.248Z,5.04
2022-12-13T04:47:32.175Z,4.41
2022-12-13T04:48:13.671Z,4.18
2022-12-13T04:49:11.170Z,4.14
2022-12-13T04:49:51.228Z,3.69
2022-12-13T04:50:31.171Z,3.84
2022-12-13T04:51:11.227Z,4.26
2022-12-13T04:51:54.646Z,4.86
2022-12-13T04:52:37.465Z,3.76
2022-12-13T04:53:22.184Z,3.10
2022-12-13T04:54:13.121Z,3.20
2022-12-13T04:55:02.184Z,3.72
2022-12-13T04:55:44.275Z,3.63
2022-12-13T04:56:24.196Z,3.69
2022-12-13T04:57:11.214Z,3.86
2022-12-13T04:58:05.161Z,3.84
2022-12-13T04:58:59.199Z,4.09
2022-12-13T04:59:54.173Z,4.32
2022-12-13T05:00:48.197Z,4.80
2022-12-13T05:01:42.185Z,4.89
2022-12-13T05:02:29.191Z,7.79
2022-12-13T05:03:03.218Z,8.56
2022-12-13T05:03:50.156Z,7.26
2022-12-13T05:04:27.585Z,5.40
2022-12-13T05:05:19.263Z,5.35
2022-12-13T05:05:53.290Z,5.46
2022-12-13T05:06:40.172Z,5.54
2022-12-13T05:07:14.210Z,5.66
2022-12-13T05:07:54.231Z,5.69
2022-12-13T05:08:34.269Z,5.40
2022-12-13T05:09:14.144Z,5.55
2022-12-13T05:09:54.237Z,5.64
2022-12-13T05:10:38.074Z,5.65
2022-12-13T05:11:19.382Z,6.65
2022-12-13T05:12:22.800Z,7.13
2022-12-13T05:13:06.166Z,5.75
2022-12-13T05:13:47.398Z,6.74
2022-12-13T05:14:27.182Z,9.66
2022-12-13T05:15:07.201Z,9.76
2022-12-13T05:15:52.077Z,6.93
2022-12-13T05:16:35.237Z,5.63
2022-12-13T05:17:15.136Z,5.01
2022-12-13T05:17:55.171Z,5.66
2022-12-13T05:18:36.176Z,5.93
2022-12-13T05:19:16.199Z,5.06
2022-12-13T05:19:56.151Z,4.45
2022-12-13T05:20:36.264Z,4.16
2022-12-13T05:21:19.139Z,4.51
2022-12-13T05:22:01.244Z,5.26
2022-12-13T05:22:44.141Z,5.24
2022-12-13T05:23:27.176Z,4.99
2022-12-13T05:24:10.149Z,4.86
2022-12-13T05:24:51.199Z,4.19
2022-12-13T05:25:33.145Z,5.09
2022-12-13T05:26:13.184Z,7.09
2022-12-13T05:26:53.130Z,6.45
2022-12-13T05:27:33.164Z,5.26
2022-12-13T05:28:27.490Z,5.74
2022-12-13T05:29:09.207Z,4.44
2022-12-13T05:29:49.138Z,4.51
2022-12-13T05:30:29.168Z,5.05
2022-12-13T05:31:23.188Z,5.46
2022-12-13T05:32:05.198Z,5.47
2022-12-13T05:32:45.123Z,5.82
2022-12-13T05:33:25.512Z,5.07
2022-12-13T05:34:06.131Z,5.34
2022-12-13T05:34:46.168Z,6.20
2022-12-13T05:35:26.168Z,6.76
2022-12-13T05:36:06.160Z,6.39
2022-12-13T05:36:47.111Z,6.50
2022-12-13T05:37:28.260Z,6.30
2022-12-13T05:38:16.136Z,6.61
2022-12-13T05:38:57.183Z,6.71
2022-12-13T05:39:37.133Z,6.74
2022-12-13T05:40:17.166Z,6.51
2022-12-13T05:40:57.171Z,7.44
2022-12-13T05:41:40.431Z,7.49
2022-12-13T05:42:20.102Z,6.84
2022-12-13T05:43:02.066Z,5.76
2022-12-13T05:43:43.695Z,5.26
2022-12-13T05:44:24.307Z,5.74
2022-12-13T05:45:04.110Z,6.10
2022-12-13T05:45:44.240Z,6.21
2022-12-13T05:46:25.162Z,5.99
2022-12-13T05:47:06.195Z,6.59
2022-12-13T05:47:46.094Z,7.47
2022-12-13T05:48:26.143Z,6.82
2022-12-13T05:49:06.099Z,7.68
2022-12-13T05:49:46.138Z,8.51
2022-12-13T05:50:26.129Z,8.30
2022-12-13T05:51:09.822Z,7.45
2022-12-13T05:51:51.126Z,8.79
2022-12-13T05:52:31.328Z,9.44
2022-12-13T05:53:12.750Z,8.55
2022-12-13T05:53:53.609Z,8.35
2022-12-13T05:54:34.091Z,7.07
2022-12-13T05:55:15.601Z,7.54
2022-12-13T05:55:56.124Z,8.46
2022-12-13T05:56:36.182Z,9.52
2022-12-13T05:57:16.133Z,10.66
2022-12-13T05:58:02.172Z,11.38
2022-12-13T05:58:45.103Z,10.23
2022-12-13T05:59:25.154Z,9.85
2022-12-13T06:00:05.087Z,9.38
2022-12-13T06:00:47.989Z,9.68
2022-12-13T06:01:28.082Z,9.38
2022-12-13T06:02:08.270Z,10.76
2022-12-13T06:02:50.223Z,11.68
2022-12-13T06:03:30.230Z,10.81
2022-12-13T06:04:10.090Z,10.91
2022-12-13T06:04:51.284Z,12.20
2022-12-13T06:05:32.087Z,11.98
2022-12-13T06:06:17.465Z,10.74
2022-12-13T06:06:58.080Z,11.99
2022-12-13T06:07:39.163Z,12.20
2022-12-13T06:08:24.777Z,11.25
2022-12-13T06:09:07.245Z,11.48
2022-12-13T06:09:49.064Z,11.04
2022-12-13T06:10:34.437Z,10.30
2022-12-13T06:11:31.680Z,10.83
2022-12-13T06:12:32.041Z,11.43
2022-12-13T06:13:21.460Z,11.51
2022-12-13T06:14:21.632Z,11.74
2022-12-13T06:15:00.795Z,13.21
2022-12-13T06:15:35.765Z,13.55
2022-12-13T06:16:25.115Z,14.64
2022-12-13T06:16:59.182Z,14.50
2022-12-13T06:17:33.900Z,15.24
2022-12-13T06:18:14.097Z,16.60
2022-12-13T06:18:48.106Z,16.17
2022-12-13T06:19:32.106Z,15.38
2022-12-13T06:20:23.711Z,16.06
2022-12-13T06:21:07.064Z,15.70
2022-12-13T06:21:47.120Z,14.48
2022-12-13T06:22:27.060Z,14.85
2022-12-13T06:23:08.135Z,14.88
2022-12-13T06:23:48.068Z,12.76
2022-12-13T06:24:30.188Z,10.89
2022-12-13T06:25:31.092Z,10.32
2022-12-13T06:26:13.387Z,10.44
2022-12-13T06:26:54.059Z,11.45
2022-12-13T06:27:35.102Z,11.43
2022-12-13T06:28:16.077Z,11.51
2022-12-13T06:28:56.102Z,11.94
2022-12-13T06:29:36.052Z,9.43
2022-12-13T06:30:24.128Z,9.50
2022-12-13T06:31:01.352Z,9.71
2022-12-13T06:31:48.064Z,11.81
2022-12-13T06:32:21.723Z,15.19
2022-12-13T06:33:09.052Z,17.69
2022-12-13T06:33:46.760Z,20.95
2022-12-13T06:34:34.052Z,24.39
2022-12-13T06:35:27.129Z,24.99
2022-12-13T06:36:09.101Z,23.39
2022-12-13T06:36:43.147Z,23.66
2022-12-13T06:37:17.723Z,22.66
2022-12-13T06:38:01.672Z,25.24
2022-12-13T06:38:43.686Z,25.15
2022-12-13T06:39:17.943Z,23.01
2022-12-13T06:39:58.041Z,23.10
2022-12-13T06:40:39.133Z,20.55
2022-12-13T06:41:25.395Z,21.16
2022-12-13T06:42:11.072Z,20.19
2022-12-13T06:42:51.049Z,20.20
2022-12-13T06:43:31.095Z,21.56
2022-12-13T06:44:12.047Z,24.30
2022-12-13T06:44:55.779Z,24.67
2022-12-13T06:45:36.053Z,26.79
2022-12-13T06:46:17.182Z,28.00
2022-12-13T06:47:10.122Z,30.35
2022-12-13T06:47:51.070Z,27.92
2022-12-13T06:48:31.029Z,24.98
2022-12-13T06:49:12.088Z,26.21
2022-12-13T06:49:53.062Z,25.90
2022-12-13T06:50:33.081Z,25.84
2022-12-13T06:51:23.045Z,25.30
2022-12-13T06:52:26.070Z,22.89
2022-12-13T06:53:00.031Z,20.17
2022-12-13T06:53:50.055Z,18.71
2022-12-13T06:54:23.702Z,16.63
2022-12-13T06:55:11.031Z,17.71
2022-12-13T06:55:44.743Z,17.05
2022-12-13T06:56:32.047Z,16.17
2022-12-13T06:57:05.733Z,14.85
2022-12-13T06:57:47.059Z,15.77
2022-12-13T06:58:21.076Z,16.94
2022-12-13T06:59:01.730Z,16.65
2022-12-13T06:59:42.326Z,16.95
2022-12-13T07:00:21.968Z,17.83
2022-12-13T07:01:14.496Z,18.55
2022-12-13T07:01:55.059Z,18.84
2022-12-13T07:02:38.451Z,18.85
2022-12-13T07:03:20.090Z,19.83
2022-12-13T07:04:03.071Z,18.70
2022-12-13T07:04:43.024Z,19.09
2022-12-13T07:05:23.434Z,19.88
2022-12-13T07:06:10.004Z,18.19
2022-12-13T07:06:50.052Z,17.24
2022-12-13T07:07:31.028Z,17.92
2022-12-13T07:08:12.138Z,20.45
2022-12-13T07:09:00.044Z,19.21
2022-12-13T07:09:40.412Z,17.45
2022-12-13T07:10:22.529Z,18.05
2022-12-13T07:11:03.080Z,18.61
2022-12-13T07:11:47.094Z,17.34
2022-12-13T07:12:32.794Z,16.49
2022-12-13T07:13:12.998Z,15.86
2022-12-13T07:13:53.146Z,16.86
2022-12-13T07:14:33.011Z,17.08
2022-12-13T07:15:21.121Z,16.14
2022-12-13T07:16:01.362Z,17.73
2022-12-13T07:16:41.069Z,22.05
2022-12-13T07:17:33.572Z,23.33
2022-12-13T07:18:15.066Z,16.13
2022-12-13T07:18:55.005Z,18.50
2022-12-13T07:19:48.456Z,19.15
2022-12-13T07:20:23.463Z,17.86
2022-12-13T07:21:10.006Z,17.67
2022-12-13T07:21:56.397Z,17.46
2022-12-13T07:22:55.070Z,19.69
2022-12-13T07:23:31.694Z,22.30
2022-12-13T07:24:20.019Z,21.70
2022-12-13T07:25:00.016Z,20.83
2022-12-13T07:25:40.062Z,20.91
2022-12-13T07:26:20.984Z,20.80
2022-12-13T07:27:02.035Z,18.52
2022-12-13T07:27:42.976Z,18.90
2022-12-13T07:28:23.121Z,20.14
2022-12-13T07:29:04.014Z,21.16
2022-12-13T07:29:44.279Z,21.77
2022-12-13T07:30:25.003Z,19.63
2022-12-13T07:31:09.063Z,21.19
2022-12-13T07:31:50.010Z,22.50
2022-12-13T07:32:30.150Z,22.70
2022-12-13T07:33:11.979Z,23.23
2022-12-13T07:33:52.056Z,20.04
2022-12-13T07:34:31.997Z,19.63
2022-12-13T07:35:12.200Z,19.56
2022-12-13T07:35:55.283Z,18.31
2022-12-13T07:36:37.027Z,20.56
2022-12-13T07:37:30.076Z,21.41
2022-12-13T07:38:16.059Z,21.09
2022-12-13T07:39:00.971Z,22.63
2022-12-13T07:39:41.042Z,23.49
2022-12-13T07:40:20.981Z,22.88
2022-12-13T07:41:11.050Z,24.23
2022-12-13T07:41:44.652Z,22.92
2022-12-13T07:42:31.997Z,29.69
2022-12-13T07:43:06.133Z,40.66
2022-12-13T07:43:55.301Z,39.21
2022-12-13T07:44:30.100Z,30.39
2022-12-13T07:45:17.971Z,25.11
2022-12-13T07:45:53.132Z,25.09
2022-12-13T07:46:34.080Z,21.86
2022-12-13T07:47:08.097Z,18.92
2022-12-13T07:47:41.607Z,19.13
2022-12-13T07:48:21.975Z,22.91
2022-12-13T07:48:56.138Z,24.49
2022-12-13T07:49:35.722Z,26.89
2022-12-13T07:50:24.049Z,29.02
2022-12-13T07:51:00.040Z,28.59
2022-12-13T07:51:42.004Z,25.27
2022-12-13T07:52:22.059Z,23.42
2022-12-13T07:53:01.965Z,23.34
2022-12-13T07:53:42.018Z,24.70
2022-12-13T07:54:21.975Z,25.59
2022-12-13T07:55:04.202Z,24.92
2022-12-13T07:55:44.974Z,25.96
2022-12-13T07:56:25.000Z,25.29
2022-12-13T07:57:04.979Z,24.42
2022-12-13T07:57:44.999Z,25.13
2022-12-13T07:58:24.981Z,26.58
2022-12-13T07:59:05.064Z,25.59
2022-12-13T07:59:45.955Z,24.88
2022-12-13T08:00:27.049Z,25.86
2022-12-13T08:01:10.977Z,28.45
2022-12-13T08:01:52.230Z,27.21
2022-12-13T08:02:33.000Z,29.17
2022-12-13T08:03:24.344Z,27.36
2022-12-13T08:04:06.966Z,26.58
2022-12-13T08:04:54.756Z,27.91
2022-12-13T08:05:38.219Z,24.10
2022-12-13T08:06:19.999Z,24.48
2022-12-13T08:06:59.953Z,23.95
2022-12-13T08:07:47.004Z,24.60
2022-12-13T08:08:20.784Z,25.13
2022-12-13T08:09:12.030Z,23.06
2022-12-13T08:09:52.463Z,22.15
2022-12-13T08:10:41.993Z,24.01
2022-12-13T08:11:17.377Z,25.86
2022-12-13T08:12:03.995Z,25.21
2022-12-13T08:12:37.794Z,25.73
2022-12-13T08:13:18.172Z,24.06
2022-12-13T08:13:52.994Z,25.05
2022-12-13T08:14:26.875Z,24.96
2022-12-13T08:15:12.318Z,25.39
2022-12-13T08:15:48.077Z,26.21
2022-12-13T08:16:26.126Z,26.44
2022-12-13T08:17:07.952Z,25.60
2022-12-13T08:17:42.129Z,26.15
2022-12-13T08:18:16.680Z,26.33
2022-12-13T08:19:02.462Z,27.48
2022-12-13T08:19:37.994Z,30.24
2022-12-13T08:20:12.433Z,31.94
2022-12-13T08:21:45.421Z,30.51
2022-12-13T08:22:05.180Z,26.95
2022-12-13T08:23:01.963Z,25.90
2022-12-13T08:23:43.917Z,25.64
2022-12-13T08:24:25.020Z,26.17
2022-12-13T08:24:58.612Z,26.80
2022-12-13T08:25:45.940Z,27.70
2022-12-13T08:26:20.321Z,25.66
2022-12-13T08:27:08.973Z,23.92
2022-12-13T08:28:02.954Z,24.69
2022-12-13T08:28:57.973Z,26.19
2022-12-13T08:29:44.968Z,25.69
2022-12-13T08:30:22.982Z,24.91
2022-12-13T08:31:18.958Z,23.75
2022-12-13T08:31:53.057Z,24.27
2022-12-13T08:32:40.964Z,24.17
2022-12-13T08:33:15.076Z,24.70
2022-12-13T08:34:02.954Z,25.23
2022-12-13T08:34:37.040Z,24.70
2022-12-13T08:35:16.970Z,25.65
2022-12-13T08:35:56.986Z,25.45
2022-12-13T08:36:37.922Z,23.73
2022-12-13T08:37:19.019Z,23.95
2022-12-13T08:37:58.913Z,24.58
2022-12-13T08:38:41.019Z,20.75
2022-12-13T08:39:21.919Z,22.76
2022-12-13T08:40:03.928Z,22.67
2022-12-13T08:40:44.956Z,20.84
2022-12-13T08:41:24.971Z,24.81
2022-12-13T08:42:16.880Z,30.01
2022-12-13T08:43:01.961Z,31.38
2022-12-13T08:43:42.903Z,31.94
2022-12-13T08:44:22.980Z,33.74
2022-12-13T08:45:02.901Z,32.36
2022-12-13T08:45:42.990Z,29.29
2022-12-13T08:46:23.012Z,27.92
2022-12-13T08:47:03.118Z,28.04
2022-12-13T08:47:42.923Z,26.95
2022-12-13T08:48:23.365Z,23.14
2022-12-13T08:49:03.930Z,21.80
2022-12-13T08:49:43.939Z,21.55
2022-12-13T08:50:25.018Z,21.38
2022-12-13T08:51:11.444Z,17.45
2022-12-13T08:51:50.914Z,16.88
2022-12-13T08:52:30.919Z,19.11
2022-12-13T08:53:11.899Z,19.58
2022-12-13T08:54:11.253Z,19.16
2022-12-13T08:54:52.914Z,20.08
2022-12-13T08:55:32.957Z,19.29
2022-12-13T08:56:17.908Z,18.14
2022-12-13T08:57:04.901Z,19.20
2022-12-13T08:58:01.190Z,18.05
2022-12-13T08:58:55.875Z,19.04
2022-12-13T08:59:49.917Z,19.30
2022-12-13T09:00:43.946Z,19.42
2022-12-13T09:02:04.811Z,20.90
2022-12-13T09:02:45.993Z,23.73
2022-12-13T09:03:26.016Z,24.05
2022-12-13T09:04:06.888Z,22.52
2022-12-13T09:04:46.930Z,24.17
2022-12-13T09:05:33.847Z,20.67
2022-12-13T09:06:18.927Z,22.85
2022-12-13T09:07:01.716Z,24.89
2022-12-13T09:07:43.831Z,24.83
2022-12-13T09:08:25.673Z,25.19
2022-12-13T09:09:05.935Z,24.56
2022-12-13T09:09:45.871Z,23.16
2022-12-13T09:10:38.563Z,20.85
2022-12-13T09:11:22.691Z,21.86
2022-12-13T09:12:30.308Z,23.86
2022-12-13T09:13:12.051Z,23.60
2022-12-13T09:13:52.899Z,24.30
2022-12-13T09:14:35.331Z,26.01
2022-12-13T09:15:23.079Z,26.00
2022-12-13T09:16:01.386Z,23.40
2022-12-13T09:16:50.573Z,22.01
2022-12-13T09:17:25.401Z,21.17
2022-12-13T09:18:15.193Z,20.64
2022-12-13T09:18:55.504Z,18.21
2022-12-13T09:19:37.212Z,20.05
2022-12-13T09:20:28.770Z,24.13
2022-12-13T09:21:22.389Z,22.73
2022-12-13T09:22:14.687Z,22.89
2022-12-13T09:23:01.758Z,28.41
2022-12-13T09:23:45.979Z,29.74
2022-12-13T09:24:27.855Z,28.15
2022-12-13T09:25:15.863Z,25.56
2022-12-13T09:26:06.349Z,26.73
2022-12-13T09:26:57.211Z,28.00
2022-12-13T09:27:39.929Z,30.61
2022-12-13T09:28:26.873Z,30.19
2022-12-13T09:29:10.860Z,28.51
2022-12-13T09:29:59.851Z,29.52
2022-12-13T09:30:40.890Z,27.74
2022-12-13T09:31:34.899Z,27.84
2022-12-13T09:32:28.958Z,26.95
2022-12-13T09:33:30.822Z,27.04
2022-12-13T09:34:24.882Z,26.39
2022-12-13T09:35:19.872Z,23.61
2022-12-13T09:36:01.262Z,23.02
2022-12-13T09:36:42.283Z,22.50
2022-12-13T09:37:23.127Z,21.61
2022-12-13T09:38:03.964Z,19.81
2022-12-13T09:38:43.852Z,20.61
2022-12-13T09:39:23.916Z,21.85
2022-12-13T09:40:16.135Z,23.01
2022-12-13T09:41:12.887Z,23.16
2022-12-13T09:42:13.859Z,23.77
2022-12-13T09:43:12.292Z,22.52
2022-12-13T09:44:31.508Z,22.44
2022-12-13T09:45:32.063Z,23.76
2022-12-13T09:46:44.964Z,22.52
2022-12-13T09:47:47.856Z,21.90
2022-12-13T09:48:48.639Z,19.79
2022-12-13T09:49:54.109Z,20.90
2022-12-13T09:50:58.374Z,23.35
2022-12-13T09:52:11.422Z,25.89
2022-12-13T09:53:12.156Z,25.77
2022-12-13T09:54:20.860Z,25.35
2022-12-13T09:55:14.865Z,24.94
2022-12-13T09:56:10.983Z,24.17
2022-12-13T09:56:54.502Z,25.15
2022-12-13T09:57:37.877Z,25.25
2022-12-13T09:58:40.995Z,26.74